Eureka, CA

06:49 PM PDT die 24o April, anno 2015 (GMT -0700)
Henderson Center | | Change Station
CLOSE
Current Station
Personal Weather Stations
Location: Eureka, CA
Elevation: 135 ft
Nearby Weather Stations

Elev 135 ft 40.78 °N, 124.16 °W | Updated 9 seconds ago

Aequaliter Nubila
Aequaliter Nubila
53.8 °F
Feels Like 53.8 °F
N
3.4
Ventus Variabilis Ventus from Zephyrus
Gusts 4.9 mph

Hodie
High -- | Low -- °F
--% Chance of Precip.
Yesterday
High -- | Low -- °F
Precip. -- in
6:24 AM 8:05 PM
Waxing Crescent, 41% visible
Pressio 29.99 in
Visibilitas 8.0 milia passuum
Clouds Few 5500 ft
Aequaliter Nubila 8500 ft
Frigus in quo Ros apparet 38 °F
Umor 55%
Rainfall 0.00 in
Snow Depth Not available.
UV 1.0 out of 12
Pollen 8.30 out of 12
Air Quality Not available.
Flu Activity Sporadic
METAR KACV 250053Z AUTO 23004KT 8SM FEW055 OVC085 11/07 A2997 RMK AO2 SLP154 T01060067

More Conditions Fewer Conditions

Pressio 29.99 in
Visibilitas 8.0 milia passuum
Clouds Few 5500 ft
Aequaliter Nubila 8500 ft
Frigus in quo Ros apparet 38 °F
Umor 55%
Rainfall 0.00 in
Snow Depth Not available.
UV 1.0 out of 12
Pollen 8.30 out of 12
Air Quality Not available.
Flu Activity Sporadic
METAR KACV 250053Z AUTO 23004KT 8SM FEW055 OVC085 11/07 A2997 RMK AO2 SLP154 T01060067

More Conditions Fewer Conditions

10-Day Weather Forecast

Almanac

Astronomy

Apr. 24, 2015 Rise Set
Actual Time
Civil Twilight
Nautical Twilight
Astronomical Twilight
Moon
Length Of Visible Light
Length of Day
Tomorrow will be .
, % of the Moon is Illuminated

Today's Extremes

State Highs State Lows

Community

WunderPhotos

Upload Photos

1,816,554 photos uploaded!

WunderBlogs® & News

Nearby

Air Quality

  Air Quality AQ Index Pollutant
Not available.

Snow Depth

Station Depth Elevation

Earthquake Activity

City Distance Mag. Time & Date
Minimum magnitude displayed is 2.5.

Coastal Water Temperatures

Locus Calor

Stations

Nearby Weather Stations

Station Location Temp Frigus Venti Frigus in quo Ros apparet Umor Ventus Precip. Elev Renovata Type